Portada
METAR-TAF:

METAR-TAF

Aeropuertos :

Aeropuerto Internacional Chhatrapati Shivaji

Bombay, India

latitud: 19-07N, longitud: 072-51E, altitud: 8 m

Observación

El informe se hizo hace 22 minutos, a las 11:00 UTC
Viento 7 kt del oeste-noroeste con ráfagas de 17 kt
Temperatura 34°C
Humedad 39%
Presión 1006 hPa
Visibilidad: 7000 m

METAR: VABB 191100Z 30007G17KT 7000 NSC 34/18 Q1006 NOSIG

Hora: 16:52 (11:22 UTC)

Pronóstico

El informe se hizo hace 3 horas y 22 minutos, a las 08:00 UTC
Pronóstico válido del 19 a las 09 UTC al 19 a las 18 UTC
Viento 10 kt del oeste con ráfagas de 20 kt
Visibilidad: 6000 m
Evolucionando progresivamente
del 19 a las 14 UTC al 19 a las 16 UTC
Viento 7 kt del oeste-noroeste
Visibilidad: 4000 m
humo, calima

TAF: VABB 190800Z 1909/1918 28010G20KT 6000 NSC BECMG 1914/1916 30007KT 4000 FU HZ

Observaciones y pronósticos meteorológicos de más de 4000 aeropuertos (mensajes METAR y TAF).

Los puntos amarillos y rojos representan las estaciones disponibles.

Ponga el ratón en el punto deseado para ver el nombre de la estación.

Haga clic para ver las observaciones y los pronósticos meteorológicos.

Para cambiar el mapa : haga clic en los botones verdes con una cruz de color negro para hacer un zoom, en el botón verde con un guión para alejar o en las flechas verdes para mapas adyacentes.


METAR-TAF: